sensor_id;sensor_type;location;lat;lon;timestamp;P1;durP1;ratioP1;P2;durP2;ratioP2
33740;SDS011;20065;48.380;10.892;2022-07-23T00:01:43;12.03;;;8.83;;
33740;SDS011;20065;48.380;10.892;2022-07-23T00:04:29;11.87;;;7.93;;
33740;SDS011;20065;48.380;10.892;2022-07-23T00:07:15;12.73;;;7.87;;
33740;SDS011;20065;48.380;10.892;2022-07-23T00:10:02;10.70;;;8.20;;
33740;SDS011;20065;48.380;10.892;2022-07-23T00:12:48;15.63;;;8.53;;
33740;SDS011;20065;48.380;10.892;2022-07-23T00:15:34;10.20;;;8.30;;
33740;SDS011;20065;48.380;10.892;2022-07-23T00:18:20;11.60;;;8.20;;
33740;SDS011;20065;48.380;10.892;2022-07-23T00:21:07;11.73;;;8.23;;
33740;SDS011;20065;48.380;10.892;2022-07-23T00:23:53;15.60;;;7.87;;
33740;SDS011;20065;48.380;10.892;2022-07-23T00:26:39;11.17;;;6.43;;
33740;SDS011;20065;48.380;10.892;2022-07-23T00:29:25;11.63;;;7.50;;
33740;SDS011;20065;48.380;10.892;2022-07-23T00:32:12;12.07;;;6.80;;
33740;SDS011;20065;48.380;10.892;2022-07-23T00:34:58;11.33;;;6.90;;
33740;SDS011;20065;48.380;10.892;2022-07-23T00:37:44;8.40;;;6.03;;
33740;SDS011;20065;48.380;10.892;2022-07-23T00:40:30;9.67;;;5.90;;
33740;SDS011;20065;48.380;10.892;2022-07-23T00:43:16;9.10;;;6.03;;
33740;SDS011;20065;48.380;10.892;2022-07-23T00:46:06;11.10;;;6.20;;
33740;SDS011;20065;48.380;10.892;2022-07-23T00:48:52;10.60;;;6.50;;
33740;SDS011;20065;48.380;10.892;2022-07-23T00:51:38;10.03;;;5.90;;
33740;SDS011;20065;48.380;10.892;2022-07-23T00:54:25;13.73;;;7.63;;
33740;SDS011;20065;48.380;10.892;2022-07-23T00:57:12;14.03;;;7.00;;
33740;SDS011;20065;48.380;10.892;2022-07-23T00:59:59;12.53;;;7.13;;
33740;SDS011;20065;48.380;10.892;2022-07-23T01:02:45;11.87;;;6.80;;
33740;SDS011;20065;48.380;10.892;2022-07-23T01:05:31;9.47;;;5.30;;
33740;SDS011;20065;48.380;10.892;2022-07-23T01:08:17;9.20;;;6.03;;
33740;SDS011;20065;48.380;10.892;2022-07-23T01:11:04;9.10;;;5.90;;
33740;SDS011;20065;48.380;10.892;2022-07-23T01:13:51;12.50;;;7.00;;
33740;SDS011;20065;48.380;10.892;2022-07-23T01:16:37;12.70;;;6.57;;
33740;SDS011;20065;48.380;10.892;2022-07-23T01:19:24;12.07;;;7.50;;
33740;SDS011;20065;48.380;10.892;2022-07-23T01:22:10;13.07;;;7.97;;
33740;SDS011;20065;48.380;10.892;2022-07-23T01:24:56;15.60;;;9.40;;
33740;SDS011;20065;48.380;10.892;2022-07-23T01:27:45;16.93;;;9.80;;
33740;SDS011;20065;48.380;10.892;2022-07-23T01:30:31;16.63;;;11.13;;
33740;SDS011;20065;48.380;10.892;2022-07-23T01:33:18;16.50;;;11.37;;
33740;SDS011;20065;48.380;10.892;2022-07-23T01:36:04;17.87;;;11.80;;
33740;SDS011;20065;48.380;10.892;2022-07-23T01:38:51;16.27;;;11.30;;
33740;SDS011;20065;48.380;10.892;2022-07-23T01:41:37;19.57;;;12.93;;
33740;SDS011;20065;48.380;10.892;2022-07-23T01:44:24;19.60;;;11.57;;
33740;SDS011;20065;48.380;10.892;2022-07-23T01:47:10;18.57;;;12.03;;
33740;SDS011;20065;48.380;10.892;2022-07-23T01:49:56;17.50;;;12.03;;
33740;SDS011;20065;48.380;10.892;2022-07-23T01:53:05;16.77;;;11.60;;
33740;SDS011;20065;48.380;10.892;2022-07-23T01:55:54;16.93;;;12.20;;
33740;SDS011;20065;48.380;10.892;2022-07-23T01:58:40;16.80;;;12.67;;
33740;SDS011;20065;48.380;10.892;2022-07-23T02:01:27;14.43;;;10.77;;
33740;SDS011;20065;48.380;10.892;2022-07-23T02:04:14;20.37;;;12.80;;
33740;SDS011;20065;48.380;10.892;2022-07-23T02:07:00;20.30;;;13.00;;
33740;SDS011;20065;48.380;10.892;2022-07-23T02:09:46;20.60;;;11.90;;
33740;SDS011;20065;48.380;10.892;2022-07-23T02:12:33;14.93;;;11.50;;
33740;SDS011;20065;48.380;10.892;2022-07-23T02:15:19;17.17;;;11.77;;
33740;SDS011;20065;48.380;10.892;2022-07-23T02:18:05;15.63;;;11.40;;
33740;SDS011;20065;48.380;10.892;2022-07-23T02:20:52;16.40;;;12.87;;
33740;SDS011;20065;48.380;10.892;2022-07-23T02:23:38;18.00;;;11.70;;
33740;SDS011;20065;48.380;10.892;2022-07-23T02:26:24;17.93;;;11.63;;
33740;SDS011;20065;48.380;10.892;2022-07-23T02:29:12;16.67;;;12.60;;
33740;SDS011;20065;48.380;10.892;2022-07-23T02:31:58;17.83;;;11.27;;
33740;SDS011;20065;48.380;10.892;2022-07-23T02:34:45;16.00;;;12.03;;
33740;SDS011;20065;48.380;10.892;2022-07-23T02:37:31;13.37;;;10.60;;
33740;SDS011;20065;48.380;10.892;2022-07-23T02:40:18;13.60;;;10.07;;
33740;SDS011;20065;48.380;10.892;2022-07-23T02:43:04;22.70;;;11.80;;
33740;SDS011;20065;48.380;10.892;2022-07-23T02:45:50;17.40;;;11.00;;
33740;SDS011;20065;48.380;10.892;2022-07-23T02:48:37;15.20;;;11.27;;
33740;SDS011;20065;48.380;10.892;2022-07-23T02:51:23;16.13;;;10.63;;
33740;SDS011;20065;48.380;10.892;2022-07-23T02:54:15;16.23;;;11.77;;
33740;SDS011;20065;48.380;10.892;2022-07-23T02:57:01;15.47;;;11.97;;
33740;SDS011;20065;48.380;10.892;2022-07-23T02:59:48;15.60;;;10.50;;
33740;SDS011;20065;48.380;10.892;2022-07-23T03:02:34;13.30;;;9.97;;
33740;SDS011;20065;48.380;10.892;2022-07-23T03:05:20;13.30;;;10.90;;
33740;SDS011;20065;48.380;10.892;2022-07-23T03:08:06;14.90;;;10.77;;
33740;SDS011;20065;48.380;10.892;2022-07-23T03:10:56;18.57;;;11.70;;
33740;SDS011;20065;48.380;10.892;2022-07-23T03:13:42;18.30;;;11.70;;
33740;SDS011;20065;48.380;10.892;2022-07-23T03:16:28;14.67;;;10.40;;
33740;SDS011;20065;48.380;10.892;2022-07-23T03:19:14;15.27;;;11.03;;
33740;SDS011;20065;48.380;10.892;2022-07-23T03:22:01;14.63;;;11.30;;
33740;SDS011;20065;48.380;10.892;2022-07-23T03:24:49;14.80;;;11.97;;
33740;SDS011;20065;48.380;10.892;2022-07-23T03:27:53;15.43;;;11.07;;
33740;SDS011;20065;48.380;10.892;2022-07-23T03:30:39;15.93;;;10.80;;
33740;SDS011;20065;48.380;10.892;2022-07-23T03:33:25;17.57;;;11.20;;
33740;SDS011;20065;48.380;10.892;2022-07-23T03:36:12;13.90;;;10.37;;
33740;SDS011;20065;48.380;10.892;2022-07-23T03:39:01;17.70;;;11.20;;
33740;SDS011;20065;48.380;10.892;2022-07-23T03:41:47;20.40;;;10.80;;
33740;SDS011;20065;48.380;10.892;2022-07-23T03:44:34;17.97;;;11.20;;
33740;SDS011;20065;48.380;10.892;2022-07-23T03:47:22;15.93;;;10.43;;
33740;SDS011;20065;48.380;10.892;2022-07-23T03:50:08;15.20;;;9.83;;
33740;SDS011;20065;48.380;10.892;2022-07-23T03:52:55;15.00;;;10.10;;
33740;SDS011;20065;48.380;10.892;2022-07-23T03:55:41;14.50;;;10.10;;
33740;SDS011;20065;48.380;10.892;2022-07-23T03:58:28;14.83;;;9.53;;
33740;SDS011;20065;48.380;10.892;2022-07-23T04:01:14;11.73;;;9.10;;
33740;SDS011;20065;48.380;10.892;2022-07-23T04:04:00;11.23;;;8.40;;
33740;SDS011;20065;48.380;10.892;2022-07-23T04:06:47;14.63;;;8.00;;
33740;SDS011;20065;48.380;10.892;2022-07-23T04:09:34;15.37;;;9.00;;
33740;SDS011;20065;48.380;10.892;2022-07-23T04:12:20;16.07;;;8.80;;
33740;SDS011;20065;48.380;10.892;2022-07-23T04:15:07;13.23;;;8.63;;
33740;SDS011;20065;48.380;10.892;2022-07-23T04:17:54;12.10;;;8.43;;
33740;SDS011;20065;48.380;10.892;2022-07-23T04:20:45;16.43;;;8.13;;
33740;SDS011;20065;48.380;10.892;2022-07-23T04:23:31;10.67;;;6.20;;
33740;SDS011;20065;48.380;10.892;2022-07-23T04:26:17;9.83;;;6.70;;
33740;SDS011;20065;48.380;10.892;2022-07-23T04:29:04;11.10;;;7.33;;
33740;SDS011;20065;48.380;10.892;2022-07-23T04:31:51;11.43;;;6.80;;
33740;SDS011;20065;48.380;10.892;2022-07-23T04:34:37;8.93;;;6.00;;
33740;SDS011;20065;48.380;10.892;2022-07-23T04:37:24;11.10;;;6.90;;
33740;SDS011;20065;48.380;10.892;2022-07-23T04:40:11;8.83;;;6.47;;
33740;SDS011;20065;48.380;10.892;2022-07-23T04:42:57;10.70;;;6.60;;
33740;SDS011;20065;48.380;10.892;2022-07-23T04:45:44;10.03;;;6.80;;
33740;SDS011;20065;48.380;10.892;2022-07-23T04:48:31;15.10;;;8.00;;
33740;SDS011;20065;48.380;10.892;2022-07-23T04:51:26;10.20;;;6.37;;
33740;SDS011;20065;48.380;10.892;2022-07-23T04:54:12;10.13;;;7.20;;
33740;SDS011;20065;48.380;10.892;2022-07-23T04:56:58;18.70;;;7.43;;
33740;SDS011;20065;48.380;10.892;2022-07-23T04:59:44;10.73;;;7.23;;
33740;SDS011;20065;48.380;10.892;2022-07-23T05:02:31;14.10;;;7.00;;
33740;SDS011;20065;48.380;10.892;2022-07-23T05:05:17;10.20;;;6.73;;
33740;SDS011;20065;48.380;10.892;2022-07-23T05:08:04;9.90;;;6.20;;
33740;SDS011;20065;48.380;10.892;2022-07-23T05:10:50;10.03;;;5.90;;
33740;SDS011;20065;48.380;10.892;2022-07-23T05:13:38;13.27;;;6.70;;
33740;SDS011;20065;48.380;10.892;2022-07-23T05:16:26;11.97;;;6.97;;
33740;SDS011;20065;48.380;10.892;2022-07-23T05:19:17;9.23;;;7.13;;
33740;SDS011;20065;48.380;10.892;2022-07-23T05:22:05;8.30;;;6.10;;
33740;SDS011;20065;48.380;10.892;2022-07-23T05:24:51;10.10;;;6.23;;
33740;SDS011;20065;48.380;10.892;2022-07-23T05:27:37;11.07;;;7.23;;
33740;SDS011;20065;48.380;10.892;2022-07-23T05:30:23;10.80;;;6.93;;
33740;SDS011;20065;48.380;10.892;2022-07-23T05:33:13;18.83;;;6.43;;
33740;SDS011;20065;48.380;10.892;2022-07-23T05:36:03;9.80;;;6.87;;
33740;SDS011;20065;48.380;10.892;2022-07-23T05:38:51;10.47;;;7.00;;
33740;SDS011;20065;48.380;10.892;2022-07-23T05:41:38;10.57;;;6.50;;
33740;SDS011;20065;48.380;10.892;2022-07-23T05:44:25;10.10;;;7.37;;
33740;SDS011;20065;48.380;10.892;2022-07-23T05:47:13;14.10;;;7.40;;
33740;SDS011;20065;48.380;10.892;2022-07-23T05:49:59;12.37;;;8.40;;
33740;SDS011;20065;48.380;10.892;2022-07-23T05:52:53;10.77;;;8.10;;
33740;SDS011;20065;48.380;10.892;2022-07-23T05:55:45;11.60;;;7.47;;
33740;SDS011;20065;48.380;10.892;2022-07-23T05:58:31;11.20;;;8.40;;
33740;SDS011;20065;48.380;10.892;2022-07-23T06:01:17;13.63;;;7.70;;
33740;SDS011;20065;48.380;10.892;2022-07-23T06:04:10;12.63;;;7.87;;
33740;SDS011;20065;48.380;10.892;2022-07-23T06:07:01;10.87;;;8.17;;
33740;SDS011;20065;48.380;10.892;2022-07-23T06:09:47;11.80;;;7.97;;
33740;SDS011;20065;48.380;10.892;2022-07-23T06:12:34;12.80;;;8.17;;
33740;SDS011;20065;48.380;10.892;2022-07-23T06:15:21;11.57;;;8.10;;
33740;SDS011;20065;48.380;10.892;2022-07-23T06:18:07;11.83;;;8.77;;
33740;SDS011;20065;48.380;10.892;2022-07-23T06:20:53;11.60;;;9.23;;
33740;SDS011;20065;48.380;10.892;2022-07-23T06:23:40;12.07;;;8.50;;
33740;SDS011;20065;48.380;10.892;2022-07-23T06:26:26;13.50;;;9.43;;
33740;SDS011;20065;48.380;10.892;2022-07-23T06:29:12;13.10;;;9.40;;
33740;SDS011;20065;48.380;10.892;2022-07-23T06:31:58;11.03;;;8.00;;
33740;SDS011;20065;48.380;10.892;2022-07-23T06:34:44;14.87;;;8.60;;
33740;SDS011;20065;48.380;10.892;2022-07-23T06:37:30;13.30;;;10.20;;
33740;SDS011;20065;48.380;10.892;2022-07-23T06:40:16;10.63;;;7.97;;
33740;SDS011;20065;48.380;10.892;2022-07-23T06:43:03;14.50;;;9.20;;
33740;SDS011;20065;48.380;10.892;2022-07-23T06:45:49;12.83;;;9.27;;
33740;SDS011;20065;48.380;10.892;2022-07-23T06:48:35;11.67;;;9.47;;
33740;SDS011;20065;48.380;10.892;2022-07-23T06:51:21;14.20;;;9.50;;
33740;SDS011;20065;48.380;10.892;2022-07-23T06:54:08;12.40;;;8.80;;
33740;SDS011;20065;48.380;10.892;2022-07-23T06:56:54;12.83;;;8.90;;
33740;SDS011;20065;48.380;10.892;2022-07-23T06:59:40;12.30;;;9.00;;
33740;SDS011;20065;48.380;10.892;2022-07-23T07:02:26;13.17;;;9.13;;
33740;SDS011;20065;48.380;10.892;2022-07-23T07:05:14;13.93;;;9.03;;
33740;SDS011;20065;48.380;10.892;2022-07-23T07:08:00;13.23;;;9.20;;
33740;SDS011;20065;48.380;10.892;2022-07-23T07:10:46;12.97;;;9.60;;
33740;SDS011;20065;48.380;10.892;2022-07-23T07:13:32;14.70;;;10.30;;
33740;SDS011;20065;48.380;10.892;2022-07-23T07:16:18;13.70;;;10.30;;
33740;SDS011;20065;48.380;10.892;2022-07-23T07:19:04;14.63;;;10.77;;
33740;SDS011;20065;48.380;10.892;2022-07-23T07:21:51;12.30;;;10.30;;
33740;SDS011;20065;48.380;10.892;2022-07-23T07:24:37;13.37;;;10.67;;
33740;SDS011;20065;48.380;10.892;2022-07-23T07:27:23;14.00;;;10.33;;
33740;SDS011;20065;48.380;10.892;2022-07-23T07:30:09;13.00;;;10.07;;
33740;SDS011;20065;48.380;10.892;2022-07-23T07:32:56;14.50;;;10.20;;
33740;SDS011;20065;48.380;10.892;2022-07-23T07:35:42;14.30;;;10.00;;
33740;SDS011;20065;48.380;10.892;2022-07-23T07:38:29;13.63;;;10.60;;
33740;SDS011;20065;48.380;10.892;2022-07-23T07:41:15;12.47;;;9.93;;
33740;SDS011;20065;48.380;10.892;2022-07-23T07:44:01;13.90;;;9.97;;
33740;SDS011;20065;48.380;10.892;2022-07-23T07:46:47;13.10;;;9.97;;
33740;SDS011;20065;48.380;10.892;2022-07-23T07:49:33;15.37;;;10.83;;
33740;SDS011;20065;48.380;10.892;2022-07-23T07:52:19;17.83;;;10.23;;
33740;SDS011;20065;48.380;10.892;2022-07-23T07:55:06;13.50;;;9.67;;
33740;SDS011;20065;48.380;10.892;2022-07-23T07:57:53;11.27;;;8.90;;
33740;SDS011;20065;48.380;10.892;2022-07-23T08:00:40;12.90;;;9.63;;
33740;SDS011;20065;48.380;10.892;2022-07-23T08:03:26;15.70;;;9.90;;
33740;SDS011;20065;48.380;10.892;2022-07-23T08:06:12;12.87;;;9.33;;
33740;SDS011;20065;48.380;10.892;2022-07-23T08:08:58;14.83;;;9.70;;
33740;SDS011;20065;48.380;10.892;2022-07-23T08:11:44;10.93;;;9.00;;
33740;SDS011;20065;48.380;10.892;2022-07-23T08:14:30;11.60;;;9.33;;
33740;SDS011;20065;48.380;10.892;2022-07-23T08:17:17;13.47;;;10.03;;
33740;SDS011;20065;48.380;10.892;2022-07-23T08:20:03;17.07;;;9.57;;
33740;SDS011;20065;48.380;10.892;2022-07-23T08:22:55;14.50;;;10.40;;
33740;SDS011;20065;48.380;10.892;2022-07-23T08:25:47;15.50;;;10.23;;
33740;SDS011;20065;48.380;10.892;2022-07-23T08:28:34;15.00;;;9.57;;
33740;SDS011;20065;48.380;10.892;2022-07-23T08:31:20;11.67;;;8.90;;
33740;SDS011;20065;48.380;10.892;2022-07-23T08:34:08;12.47;;;8.83;;
33740;SDS011;20065;48.380;10.892;2022-07-23T08:36:55;10.90;;;8.77;;
33740;SDS011;20065;48.380;10.892;2022-07-23T08:39:41;11.97;;;9.23;;
33740;SDS011;20065;48.380;10.892;2022-07-23T08:42:27;12.63;;;8.87;;
33740;SDS011;20065;48.380;10.892;2022-07-23T08:45:15;11.47;;;8.40;;
33740;SDS011;20065;48.380;10.892;2022-07-23T08:48:15;11.73;;;8.70;;
33740;SDS011;20065;48.380;10.892;2022-07-23T08:51:03;11.97;;;7.47;;
33740;SDS011;20065;48.380;10.892;2022-07-23T08:53:50;10.73;;;6.77;;
33740;SDS011;20065;48.380;10.892;2022-07-23T08:56:37;10.27;;;7.40;;
33740;SDS011;20065;48.380;10.892;2022-07-23T08:59:24;10.60;;;6.90;;
33740;SDS011;20065;48.380;10.892;2022-07-23T09:02:12;10.70;;;7.03;;
33740;SDS011;20065;48.380;10.892;2022-07-23T09:04:58;10.50;;;6.90;;
33740;SDS011;20065;48.380;10.892;2022-07-23T09:11:02;9.00;;;6.60;;
33740;SDS011;20065;48.380;10.892;2022-07-23T09:13:53;9.37;;;7.10;;
33740;SDS011;20065;48.380;10.892;2022-07-23T09:16:43;10.20;;;5.80;;
33740;SDS011;20065;48.380;10.892;2022-07-23T09:19:30;8.93;;;6.90;;
33740;SDS011;20065;48.380;10.892;2022-07-23T09:22:25;8.60;;;6.43;;
33740;SDS011;20065;48.380;10.892;2022-07-23T09:25:14;9.70;;;7.10;;
33740;SDS011;20065;48.380;10.892;2022-07-23T09:28:02;9.90;;;6.90;;
33740;SDS011;20065;48.380;10.892;2022-07-23T09:30:48;10.40;;;7.10;;
33740;SDS011;20065;48.380;10.892;2022-07-23T09:33:38;8.50;;;6.60;;
33740;SDS011;20065;48.380;10.892;2022-07-23T09:36:28;9.03;;;6.90;;
33740;SDS011;20065;48.380;10.892;2022-07-23T09:39:16;9.20;;;6.40;;
33740;SDS011;20065;48.380;10.892;2022-07-23T09:42:13;7.80;;;5.57;;
33740;SDS011;20065;48.380;10.892;2022-07-23T09:45:06;9.97;;;6.60;;
33740;SDS011;20065;48.380;10.892;2022-07-23T09:48:13;9.90;;;4.23;;
33740;SDS011;20065;48.380;10.892;2022-07-23T09:51:04;8.07;;;5.83;;
33740;SDS011;20065;48.380;10.892;2022-07-23T09:53:51;10.23;;;6.53;;
33740;SDS011;20065;48.380;10.892;2022-07-23T09:56:37;10.00;;;6.60;;
33740;SDS011;20065;48.380;10.892;2022-07-23T09:59:26;11.37;;;7.37;;
33740;SDS011;20065;48.380;10.892;2022-07-23T10:02:14;9.70;;;6.80;;
33740;SDS011;20065;48.380;10.892;2022-07-23T10:05:30;9.60;;;6.90;;
33740;SDS011;20065;48.380;10.892;2022-07-23T10:08:34;11.33;;;6.97;;
33740;SDS011;20065;48.380;10.892;2022-07-23T10:12:00;11.90;;;7.00;;
33740;SDS011;20065;48.380;10.892;2022-07-23T10:15:09;9.30;;;6.40;;
33740;SDS011;20065;48.380;10.892;2022-07-23T10:17:55;9.63;;;7.50;;
33740;SDS011;20065;48.380;10.892;2022-07-23T10:20:41;9.50;;;7.10;;
33740;SDS011;20065;48.380;10.892;2022-07-23T10:23:33;9.50;;;6.60;;
33740;SDS011;20065;48.380;10.892;2022-07-23T10:30:00;10.60;;;6.70;;
33740;SDS011;20065;48.380;10.892;2022-07-23T10:32:56;10.07;;;7.70;;
33740;SDS011;20065;48.380;10.892;2022-07-23T10:36:11;8.73;;;6.47;;
33740;SDS011;20065;48.380;10.892;2022-07-23T10:39:05;9.07;;;6.20;;
33740;SDS011;20065;48.380;10.892;2022-07-23T10:44:58;8.60;;;5.90;;
33740;SDS011;20065;48.380;10.892;2022-07-23T10:47:45;11.33;;;7.03;;
33740;SDS011;20065;48.380;10.892;2022-07-23T10:50:31;9.07;;;6.93;;
33740;SDS011;20065;48.380;10.892;2022-07-23T10:53:20;8.93;;;6.87;;
33740;SDS011;20065;48.380;10.892;2022-07-23T10:56:06;8.87;;;6.90;;
33740;SDS011;20065;48.380;10.892;2022-07-23T10:58:52;10.30;;;6.60;;
33740;SDS011;20065;48.380;10.892;2022-07-23T11:01:48;8.53;;;6.70;;
33740;SDS011;20065;48.380;10.892;2022-07-23T11:05:38;12.60;;;6.87;;
33740;SDS011;20065;48.380;10.892;2022-07-23T11:10:51;8.93;;;7.00;;
33740;SDS011;20065;48.380;10.892;2022-07-23T11:13:42;8.97;;;7.30;;
33740;SDS011;20065;48.380;10.892;2022-07-23T11:16:30;10.90;;;6.97;;
33740;SDS011;20065;48.380;10.892;2022-07-23T11:19:31;8.00;;;5.80;;
33740;SDS011;20065;48.380;10.892;2022-07-23T11:22:46;11.13;;;6.03;;
33740;SDS011;20065;48.380;10.892;2022-07-23T11:25:36;10.50;;;6.57;;
33740;SDS011;20065;48.380;10.892;2022-07-23T11:28:28;8.70;;;5.90;;
33740;SDS011;20065;48.380;10.892;2022-07-23T11:31:17;10.70;;;7.20;;
33740;SDS011;20065;48.380;10.892;2022-07-23T11:40:24;12.83;;;7.10;;
33740;SDS011;20065;48.380;10.892;2022-07-23T11:43:11;11.17;;;6.87;;
33740;SDS011;20065;48.380;10.892;2022-07-23T11:45:59;8.10;;;6.80;;
33740;SDS011;20065;48.380;10.892;2022-07-23T11:48:45;10.87;;;7.63;;
33740;SDS011;20065;48.380;10.892;2022-07-23T11:51:32;11.67;;;7.30;;
33740;SDS011;20065;48.380;10.892;2022-07-23T11:54:18;10.67;;;6.63;;
33740;SDS011;20065;48.380;10.892;2022-07-23T11:57:04;9.57;;;7.67;;
33740;SDS011;20065;48.380;10.892;2022-07-23T11:59:51;10.23;;;7.10;;
33740;SDS011;20065;48.380;10.892;2022-07-23T12:02:42;12.50;;;8.40;;
33740;SDS011;20065;48.380;10.892;2022-07-23T12:05:32;11.50;;;7.83;;
33740;SDS011;20065;48.380;10.892;2022-07-23T12:08:19;8.57;;;6.80;;
33740;SDS011;20065;48.380;10.892;2022-07-23T12:11:06;9.50;;;6.73;;
33740;SDS011;20065;48.380;10.892;2022-07-23T12:13:57;10.37;;;7.00;;
33740;SDS011;20065;48.380;10.892;2022-07-23T12:16:43;9.63;;;7.27;;
33740;SDS011;20065;48.380;10.892;2022-07-23T12:19:29;10.63;;;8.90;;
33740;SDS011;20065;48.380;10.892;2022-07-23T12:22:16;10.43;;;8.10;;
33740;SDS011;20065;48.380;10.892;2022-07-23T12:25:06;11.80;;;7.70;;
33740;SDS011;20065;48.380;10.892;2022-07-23T12:30:51;10.23;;;7.67;;
33740;SDS011;20065;48.380;10.892;2022-07-23T12:33:39;9.00;;;6.83;;
33740;SDS011;20065;48.380;10.892;2022-07-23T12:36:36;10.10;;;7.80;;
33740;SDS011;20065;48.380;10.892;2022-07-23T12:39:31;12.50;;;8.23;;
33740;SDS011;20065;48.380;10.892;2022-07-23T12:42:17;10.60;;;8.00;;
33740;SDS011;20065;48.380;10.892;2022-07-23T12:45:10;9.70;;;7.70;;
33740;SDS011;20065;48.380;10.892;2022-07-23T12:50:50;10.23;;;8.23;;
33740;SDS011;20065;48.380;10.892;2022-07-23T12:53:38;10.30;;;7.20;;
33740;SDS011;20065;48.380;10.892;2022-07-23T12:56:27;9.90;;;7.83;;
33740;SDS011;20065;48.380;10.892;2022-07-23T12:59:19;11.00;;;8.30;;
33740;SDS011;20065;48.380;10.892;2022-07-23T13:02:08;13.80;;;8.00;;
33740;SDS011;20065;48.380;10.892;2022-07-23T13:04:54;10.63;;;8.60;;
33740;SDS011;20065;48.380;10.892;2022-07-23T13:07:40;10.00;;;7.70;;
33740;SDS011;20065;48.380;10.892;2022-07-23T13:10:27;10.27;;;8.43;;
33740;SDS011;20065;48.380;10.892;2022-07-23T13:13:13;9.57;;;8.50;;
33740;SDS011;20065;48.380;10.892;2022-07-23T13:16:00;10.50;;;8.17;;
33740;SDS011;20065;48.380;10.892;2022-07-23T13:18:50;12.53;;;8.20;;
33740;SDS011;20065;48.380;10.892;2022-07-23T13:21:37;10.10;;;8.50;;
33740;SDS011;20065;48.380;10.892;2022-07-23T13:24:27;12.57;;;8.43;;
33740;SDS011;20065;48.380;10.892;2022-07-23T13:27:14;11.40;;;8.17;;
33740;SDS011;20065;48.380;10.892;2022-07-23T13:30:00;10.60;;;8.00;;
33740;SDS011;20065;48.380;10.892;2022-07-23T13:32:47;12.60;;;9.47;;
33740;SDS011;20065;48.380;10.892;2022-07-23T13:35:37;11.60;;;8.60;;
33740;SDS011;20065;48.380;10.892;2022-07-23T13:38:24;10.60;;;8.70;;
33740;SDS011;20065;48.380;10.892;2022-07-23T13:41:10;13.37;;;9.17;;
33740;SDS011;20065;48.380;10.892;2022-07-23T13:43:57;10.83;;;9.17;;
33740;SDS011;20065;48.380;10.892;2022-07-23T13:46:43;11.03;;;8.40;;
33740;SDS011;20065;48.380;10.892;2022-07-23T13:49:30;10.23;;;8.20;;
33740;SDS011;20065;48.380;10.892;2022-07-23T13:52:19;15.60;;;8.93;;
33740;SDS011;20065;48.380;10.892;2022-07-23T13:55:06;11.60;;;9.10;;
33740;SDS011;20065;48.380;10.892;2022-07-23T13:57:53;10.90;;;9.20;;
33740;SDS011;20065;48.380;10.892;2022-07-23T14:00:40;11.57;;;9.73;;
33740;SDS011;20065;48.380;10.892;2022-07-23T14:03:28;11.20;;;8.97;;
33740;SDS011;20065;48.380;10.892;2022-07-23T14:06:14;12.60;;;8.53;;
33740;SDS011;20065;48.380;10.892;2022-07-23T14:09:01;11.70;;;9.20;;
33740;SDS011;20065;48.380;10.892;2022-07-23T14:11:47;10.10;;;7.97;;
33740;SDS011;20065;48.380;10.892;2022-07-23T14:14:33;9.07;;;7.80;;
33740;SDS011;20065;48.380;10.892;2022-07-23T14:17:20;8.60;;;7.43;;
33740;SDS011;20065;48.380;10.892;2022-07-23T14:20:07;10.67;;;7.80;;
33740;SDS011;20065;48.380;10.892;2022-07-23T14:22:54;11.50;;;7.87;;
33740;SDS011;20065;48.380;10.892;2022-07-23T14:25:42;9.57;;;7.77;;
33740;SDS011;20065;48.380;10.892;2022-07-23T14:28:28;8.37;;;7.47;;
33740;SDS011;20065;48.380;10.892;2022-07-23T14:31:14;10.07;;;7.47;;
33740;SDS011;20065;48.380;10.892;2022-07-23T14:34:00;9.43;;;7.73;;
33740;SDS011;20065;48.380;10.892;2022-07-23T14:36:47;9.17;;;7.60;;
33740;SDS011;20065;48.380;10.892;2022-07-23T14:39:33;7.90;;;6.53;;
33740;SDS011;20065;48.380;10.892;2022-07-23T14:42:19;8.17;;;6.37;;
33740;SDS011;20065;48.380;10.892;2022-07-23T14:45:06;11.43;;;6.37;;
33740;SDS011;20065;48.380;10.892;2022-07-23T14:47:52;7.40;;;5.63;;
33740;SDS011;20065;48.380;10.892;2022-07-23T14:50:39;8.80;;;6.00;;
33740;SDS011;20065;48.380;10.892;2022-07-23T14:53:25;8.27;;;5.60;;
33740;SDS011;20065;48.380;10.892;2022-07-23T14:56:12;7.33;;;5.60;;
33740;SDS011;20065;48.380;10.892;2022-07-23T14:59:02;8.10;;;6.33;;
33740;SDS011;20065;48.380;10.892;2022-07-23T15:01:49;10.27;;;7.00;;
33740;SDS011;20065;48.380;10.892;2022-07-23T15:04:35;9.87;;;7.03;;
33740;SDS011;20065;48.380;10.892;2022-07-23T15:07:21;9.23;;;7.40;;
33740;SDS011;20065;48.380;10.892;2022-07-23T15:10:08;10.90;;;7.80;;
33740;SDS011;20065;48.380;10.892;2022-07-23T15:12:54;10.17;;;8.00;;
33740;SDS011;20065;48.380;10.892;2022-07-23T15:15:40;9.87;;;7.30;;
33740;SDS011;20065;48.380;10.892;2022-07-23T15:18:27;10.57;;;7.07;;
33740;SDS011;20065;48.380;10.892;2022-07-23T15:21:13;11.40;;;8.10;;
33740;SDS011;20065;48.380;10.892;2022-07-23T15:24:00;11.27;;;8.03;;
33740;SDS011;20065;48.380;10.892;2022-07-23T15:26:49;8.90;;;7.83;;
33740;SDS011;20065;48.380;10.892;2022-07-23T15:29:35;12.37;;;8.53;;
33740;SDS011;20065;48.380;10.892;2022-07-23T15:32:22;10.93;;;7.30;;
33740;SDS011;20065;48.380;10.892;2022-07-23T15:35:10;10.80;;;7.60;;
33740;SDS011;20065;48.380;10.892;2022-07-23T15:37:56;12.70;;;7.97;;
33740;SDS011;20065;48.380;10.892;2022-07-23T15:40:42;10.70;;;7.90;;
33740;SDS011;20065;48.380;10.892;2022-07-23T15:43:28;11.00;;;8.33;;
33740;SDS011;20065;48.380;10.892;2022-07-23T15:46:15;10.00;;;8.53;;
33740;SDS011;20065;48.380;10.892;2022-07-23T15:49:07;9.70;;;8.50;;
33740;SDS011;20065;48.380;10.892;2022-07-23T15:51:54;10.60;;;7.90;;
33740;SDS011;20065;48.380;10.892;2022-07-23T15:54:41;9.80;;;7.70;;
33740;SDS011;20065;48.380;10.892;2022-07-23T15:57:27;10.60;;;7.90;;
33740;SDS011;20065;48.380;10.892;2022-07-23T16:00:14;11.13;;;8.83;;
33740;SDS011;20065;48.380;10.892;2022-07-23T16:03:00;10.70;;;8.30;;
33740;SDS011;20065;48.380;10.892;2022-07-23T16:05:46;9.83;;;7.90;;
33740;SDS011;20065;48.380;10.892;2022-07-23T16:08:32;11.63;;;8.30;;
33740;SDS011;20065;48.380;10.892;2022-07-23T16:11:19;8.87;;;7.37;;
33740;SDS011;20065;48.380;10.892;2022-07-23T16:14:05;11.70;;;8.57;;
33740;SDS011;20065;48.380;10.892;2022-07-23T16:16:51;9.03;;;7.27;;
33740;SDS011;20065;48.380;10.892;2022-07-23T16:19:41;12.10;;;9.77;;
33740;SDS011;20065;48.380;10.892;2022-07-23T16:22:27;9.30;;;7.87;;
33740;SDS011;20065;48.380;10.892;2022-07-23T16:25:13;9.57;;;8.00;;
33740;SDS011;20065;48.380;10.892;2022-07-23T16:28:00;9.53;;;7.90;;
33740;SDS011;20065;48.380;10.892;2022-07-23T16:30:46;9.80;;;8.23;;
33740;SDS011;20065;48.380;10.892;2022-07-23T16:33:33;8.93;;;7.50;;
33740;SDS011;20065;48.380;10.892;2022-07-23T16:36:19;11.40;;;8.63;;
33740;SDS011;20065;48.380;10.892;2022-07-23T16:39:07;12.13;;;8.47;;
33740;SDS011;20065;48.380;10.892;2022-07-23T16:41:53;11.40;;;8.60;;
33740;SDS011;20065;48.380;10.892;2022-07-23T16:44:40;9.70;;;7.90;;
33740;SDS011;20065;48.380;10.892;2022-07-23T16:47:26;10.13;;;7.93;;